sensor_id;sensor_type;location;lat;lon;timestamp;pressure;altitude;pressure_sealevel;temperature;humidity
78625;BME280;67944;0.000;0.000;2023-07-24T00:00:29;99854.25;;;26.72;35.47
78625;BME280;67944;0.000;0.000;2023-07-24T00:02:55;99862.28;;;26.72;35.02
78625;BME280;67944;0.000;0.000;2023-07-24T00:05:21;99847.75;;;26.68;35.38
78625;BME280;67944;0.000;0.000;2023-07-24T00:07:46;99851.47;;;26.67;34.96
78625;BME280;67944;0.000;0.000;2023-07-24T00:10:12;99858.34;;;26.63;35.43
78625;BME280;67944;0.000;0.000;2023-07-24T00:12:37;99852.22;;;26.62;35.46
78625;BME280;67944;0.000;0.000;2023-07-24T00:15:03;99860.22;;;26.62;35.04
78625;BME280;67944;0.000;0.000;2023-07-24T00:17:28;99852.66;;;26.59;35.89
78625;BME280;67944;0.000;0.000;2023-07-24T00:19:54;99840.59;;;26.57;35.21
78625;BME280;67944;0.000;0.000;2023-07-24T00:22:19;99850.69;;;26.55;35.39
78625;BME280;67944;0.000;0.000;2023-07-24T00:24:44;99860.34;;;26.56;35.87
78625;BME280;67944;0.000;0.000;2023-07-24T00:27:10;99857.66;;;26.56;35.06
78625;BME280;67944;0.000;0.000;2023-07-24T00:29:35;99852.09;;;26.57;35.22
78625;BME280;67944;0.000;0.000;2023-07-24T00:32:01;99845.69;;;26.58;35.87
78625;BME280;67944;0.000;0.000;2023-07-24T00:34:26;99853.72;;;26.58;35.47
78625;BME280;67944;0.000;0.000;2023-07-24T00:36:51;99851.84;;;26.59;35.90
78625;BME280;67944;0.000;0.000;2023-07-24T00:39:17;99843.03;;;26.58;35.70
78625;BME280;67944;0.000;0.000;2023-07-24T00:41:43;99855.09;;;26.61;35.35
78625;BME280;67944;0.000;0.000;2023-07-24T00:44:09;99845.47;;;26.60;35.23
78625;BME280;67944;0.000;0.000;2023-07-24T00:46:35;99836.06;;;26.57;35.38
78625;BME280;67944;0.000;0.000;2023-07-24T00:49:02;99829.31;;;26.55;35.37
78625;BME280;67944;0.000;0.000;2023-07-24T00:51:30;99825.84;;;26.54;35.32
78625;BME280;67944;0.000;0.000;2023-07-24T00:54:00;99821.78;;;26.52;35.43
78625;BME280;67944;0.000;0.000;2023-07-24T00:56:27;99828.41;;;26.49;35.17
78625;BME280;67944;0.000;0.000;2023-07-24T00:58:54;99830.25;;;26.49;36.12
78625;BME280;67944;0.000;0.000;2023-07-24T01:01:21;99835.59;;;26.49;36.02
78625;BME280;67944;0.000;0.000;2023-07-24T01:03:47;99841.53;;;26.51;35.27
78625;BME280;67944;0.000;0.000;2023-07-24T01:06:14;99823.41;;;26.53;35.32
78625;BME280;67944;0.000;0.000;2023-07-24T01:08:39;99825.84;;;26.54;35.34
78625;BME280;67944;0.000;0.000;2023-07-24T01:11:24;99830.97;;;26.56;35.55
78625;BME280;67944;0.000;0.000;2023-07-24T01:14:06;99823.53;;;26.58;35.39
78625;BME280;67944;0.000;0.000;2023-07-24T01:16:41;99812.25;;;26.56;35.79
78625;BME280;67944;0.000;0.000;2023-07-24T01:19:16;99804.47;;;26.54;35.53
78625;BME280;67944;0.000;0.000;2023-07-24T01:22:01;99806.91;;;26.56;35.66
78625;BME280;67944;0.000;0.000;2023-07-24T01:24:39;99807.97;;;26.55;35.32
78625;BME280;67944;0.000;0.000;2023-07-24T01:27:08;99797.28;;;26.55;35.31
78625;BME280;67944;0.000;0.000;2023-07-24T01:29:34;99806.09;;;26.55;35.52
78625;BME280;67944;0.000;0.000;2023-07-24T01:31:59;99799.94;;;26.55;35.39
78625;BME280;67944;0.000;0.000;2023-07-24T01:34:25;99792.16;;;26.53;35.41
78625;BME280;67944;0.000;0.000;2023-07-24T01:36:50;99796.69;;;26.53;35.51
78625;BME280;67944;0.000;0.000;2023-07-24T01:39:18;99794.03;;;26.53;35.51
78625;BME280;67944;0.000;0.000;2023-07-24T01:41:45;99792.41;;;26.52;35.46
78625;BME280;67944;0.000;0.000;2023-07-24T01:44:11;99800.41;;;26.52;35.62
78625;BME280;67944;0.000;0.000;2023-07-24T01:46:36;99801.47;;;26.51;35.98
78625;BME280;67944;0.000;0.000;2023-07-24T01:49:02;99805.19;;;26.50;35.77
78625;BME280;67944;0.000;0.000;2023-07-24T01:51:27;99800.66;;;26.50;35.57
78625;BME280;67944;0.000;0.000;2023-07-24T01:53:53;99791.00;;;26.49;35.48
78625;BME280;67944;0.000;0.000;2023-07-24T01:56:18;99767.22;;;26.48;36.11
78625;BME280;67944;0.000;0.000;2023-07-24T01:58:43;99723.69;;;26.47;36.01
78625;BME280;67944;0.000;0.000;2023-07-24T02:01:09;99728.19;;;26.47;35.72
78625;BME280;67944;0.000;0.000;2023-07-24T02:03:34;99732.97;;;26.45;36.19
78625;BME280;67944;0.000;0.000;2023-07-24T02:06:00;99716.13;;;26.44;35.78
78625;BME280;67944;0.000;0.000;2023-07-24T02:08:25;99717.41;;;26.42;35.79
78625;BME280;67944;0.000;0.000;2023-07-24T02:10:51;99733.44;;;26.42;35.88
78625;BME280;67944;0.000;0.000;2023-07-24T02:13:16;99732.88;;;26.40;35.87
78625;BME280;67944;0.000;0.000;2023-07-24T02:15:41;99740.91;;;26.40;35.76
78625;BME280;67944;0.000;0.000;2023-07-24T02:18:07;99751.81;;;26.38;36.32
78625;BME280;67944;0.000;0.000;2023-07-24T02:20:32;99756.34;;;26.38;36.22
78625;BME280;67944;0.000;0.000;2023-07-24T02:22:58;99760.88;;;26.37;35.96
78625;BME280;67944;0.000;0.000;2023-07-24T02:25:23;99762.16;;;26.35;35.77
78625;BME280;67944;0.000;0.000;2023-07-24T02:27:49;99762.16;;;26.35;36.38
78625;BME280;67944;0.000;0.000;2023-07-24T02:30:14;99758.91;;;26.33;36.56
78625;BME280;67944;0.000;0.000;2023-07-24T02:32:39;99758.91;;;26.33;36.22
78625;BME280;67944;0.000;0.000;2023-07-24T02:35:05;99744.72;;;26.32;36.35
78625;BME280;67944;0.000;0.000;2023-07-24T02:37:31;99746.59;;;26.32;36.58
78625;BME280;67944;0.000;0.000;2023-07-24T02:39:56;99746.59;;;26.32;36.04
78625;BME280;67944;0.000;0.000;2023-07-24T02:42:22;99742.28;;;26.31;35.93
78625;BME280;67944;0.000;0.000;2023-07-24T02:44:47;99748.69;;;26.29;36.45
78625;BME280;67944;0.000;0.000;2023-07-24T02:47:13;99747.03;;;26.28;36.25
78625;BME280;67944;0.000;0.000;2023-07-24T02:49:38;99740.06;;;26.27;36.02
78625;BME280;67944;0.000;0.000;2023-07-24T02:52:04;99737.41;;;26.27;36.07
78625;BME280;67944;0.000;0.000;2023-07-24T02:54:29;99736.81;;;26.25;36.27
78625;BME280;67944;0.000;0.000;2023-07-24T02:56:55;99738.69;;;26.25;36.54
78625;BME280;67944;0.000;0.000;2023-07-24T02:59:20;99735.44;;;26.23;36.89
78625;BME280;67944;0.000;0.000;2023-07-24T03:01:46;99733.56;;;26.23;36.90
78625;BME280;67944;0.000;0.000;2023-07-24T03:04:11;99725.78;;;26.22;36.84
78625;BME280;67944;0.000;0.000;2023-07-24T03:06:36;99733.81;;;26.22;36.90
78625;BME280;67944;0.000;0.000;2023-07-24T03:09:02;99733.22;;;26.20;36.55
78625;BME280;67944;0.000;0.000;2023-07-24T03:11:27;99728.97;;;26.19;37.04
78625;BME280;67944;0.000;0.000;2023-07-24T03:13:53;99730.00;;;26.18;36.84
78625;BME280;67944;0.000;0.000;2023-07-24T03:16:18;99710.16;;;26.14;36.90
78625;BME280;67944;0.000;0.000;2023-07-24T03:18:46;99707.72;;;26.12;37.39
78625;BME280;67944;0.000;0.000;2023-07-24T03:21:11;99705.53;;;26.09;37.04
78625;BME280;67944;0.000;0.000;2023-07-24T03:23:37;99706.78;;;26.07;37.45
78625;BME280;67944;0.000;0.000;2023-07-24T03:26:02;99709.69;;;26.05;37.69
78625;BME280;67944;0.000;0.000;2023-07-24T03:28:28;99706.69;;;26.02;37.56
78625;BME280;67944;0.000;0.000;2023-07-24T03:30:53;99704.25;;;26.00;38.16
78625;BME280;67944;0.000;0.000;2023-07-24T03:33:19;99701.50;;;25.95;37.58
78625;BME280;67944;0.000;0.000;2023-07-24T03:35:45;99699.06;;;25.93;37.72
78625;BME280;67944;0.000;0.000;2023-07-24T03:38:10;99702.19;;;25.90;38.20
78625;BME280;67944;0.000;0.000;2023-07-24T03:40:35;99690.13;;;25.88;38.78
78625;BME280;67944;0.000;0.000;2023-07-24T03:43:01;99670.06;;;25.85;38.08
78625;BME280;67944;0.000;0.000;2023-07-24T03:45:26;99677.47;;;25.83;38.91
78625;BME280;67944;0.000;0.000;2023-07-24T03:47:52;99687.56;;;25.81;38.73
78625;BME280;67944;0.000;0.000;2023-07-24T03:50:17;99686.97;;;25.79;39.14
78625;BME280;67944;0.000;0.000;2023-07-24T03:52:43;99685.34;;;25.78;38.70
78625;BME280;67944;0.000;0.000;2023-07-24T03:55:08;99675.19;;;25.75;39.31
78625;BME280;67944;0.000;0.000;2023-07-24T03:57:34;99670.09;;;25.74;39.34
78625;BME280;67944;0.000;0.000;2023-07-24T04:00:00;99650.84;;;25.72;39.23
78625;BME280;67944;0.000;0.000;2023-07-24T04:02:25;99663.59;;;25.70;39.73
78625;BME280;67944;0.000;0.000;2023-07-24T04:04:50;99667.53;;;25.67;38.95
78625;BME280;67944;0.000;0.000;2023-07-24T04:07:16;99673.09;;;25.66;39.84
78625;BME280;67944;0.000;0.000;2023-07-24T04:09:41;99682.13;;;25.65;39.55
78625;BME280;67944;0.000;0.000;2023-07-24T04:12:07;99668.81;;;25.65;40.23
78625;BME280;67944;0.000;0.000;2023-07-24T04:14:32;99659.75;;;25.66;40.01
78625;BME280;67944;0.000;0.000;2023-07-24T04:16:58;99662.41;;;25.66;39.91
78625;BME280;67944;0.000;0.000;2023-07-24T04:19:23;99653.16;;;25.68;40.22
78625;BME280;67944;0.000;0.000;2023-07-24T04:21:49;99635.53;;;25.67;40.04
78625;BME280;67944;0.000;0.000;2023-07-24T04:24:14;99648.63;;;25.69;39.90
78625;BME280;67944;0.000;0.000;2023-07-24T04:26:39;99650.25;;;25.70;40.57
78625;BME280;67944;0.000;0.000;2023-07-24T04:29:06;99657.22;;;25.71;40.06
78625;BME280;67944;0.000;0.000;2023-07-24T04:31:31;99655.59;;;25.70;40.22
78625;BME280;67944;0.000;0.000;2023-07-24T04:33:57;99665.22;;;25.71;39.70
78625;BME280;67944;0.000;0.000;2023-07-24T04:36:22;99662.53;;;25.71;39.84
78625;BME280;67944;0.000;0.000;2023-07-24T04:38:48;99669.50;;;25.72;40.46
78625;BME280;67944;0.000;0.000;2023-07-24T04:41:13;99680.75;;;25.74;40.34
78625;BME280;67944;0.000;0.000;2023-07-24T04:43:38;99677.84;;;25.75;40.71
78625;BME280;67944;0.000;0.000;2023-07-24T04:46:04;99670.66;;;25.76;40.36
78625;BME280;67944;0.000;0.000;2023-07-24T04:48:29;99673.06;;;25.77;40.41
78625;BME280;67944;0.000;0.000;2023-07-24T04:50:56;99667.50;;;25.79;40.51
78625;BME280;67944;0.000;0.000;2023-07-24T04:53:22;99653.13;;;25.80;40.39
78625;BME280;67944;0.000;0.000;2023-07-24T04:55:48;99665.41;;;25.81;40.51
78625;BME280;67944;0.000;0.000;2023-07-24T04:58:13;99666.22;;;25.81;40.66
78625;BME280;67944;0.000;0.000;2023-07-24T05:00:39;99674.81;;;25.83;40.74
78625;BME280;67944;0.000;0.000;2023-07-24T05:03:04;99680.16;;;25.83;41.26
78625;BME280;67944;0.000;0.000;2023-07-24T05:05:31;99674.56;;;25.85;40.44
78625;BME280;67944;0.000;0.000;2023-07-24T05:07:57;99665.75;;;25.84;41.33
78625;BME280;67944;0.000;0.000;2023-07-24T05:10:22;99664.94;;;25.84;40.51
78625;BME280;67944;0.000;0.000;2023-07-24T05:12:48;99657.75;;;25.84;41.28
78625;BME280;67944;0.000;0.000;2023-07-24T05:15:13;99663.91;;;25.85;40.56
78625;BME280;67944;0.000;0.000;2023-07-24T05:17:42;99662.06;;;25.85;40.90
78625;BME280;67944;0.000;0.000;2023-07-24T05:20:08;99652.19;;;25.86;41.35
78625;BME280;67944;0.000;0.000;2023-07-24T05:22:34;99640.47;;;25.87;40.62
78625;BME280;67944;0.000;0.000;2023-07-24T05:24:59;99639.66;;;25.86;41.61
78625;BME280;67944;0.000;0.000;2023-07-24T05:27:25;99651.16;;;25.87;40.90
78625;BME280;67944;0.000;0.000;2023-07-24T05:29:50;99644.78;;;25.88;41.59
78625;BME280;67944;0.000;0.000;2023-07-24T05:32:15;99647.19;;;25.89;40.88
78625;BME280;67944;0.000;0.000;2023-07-24T05:34:41;99649.88;;;25.89;41.22
78625;BME280;67944;0.000;0.000;2023-07-24T05:37:06;99656.03;;;25.90;41.26
78625;BME280;67944;0.000;0.000;2023-07-24T05:39:32;99651.25;;;25.92;41.77
78625;BME280;67944;0.000;0.000;2023-07-24T05:41:57;99653.69;;;25.93;41.87
78625;BME280;67944;0.000;0.000;2023-07-24T05:44:22;99668.66;;;25.94;41.01
78625;BME280;67944;0.000;0.000;2023-07-24T05:46:48;99665.53;;;25.98;41.49
78625;BME280;67944;0.000;0.000;2023-07-24T05:49:13;99673.28;;;25.99;41.80
78625;BME280;67944;0.000;0.000;2023-07-24T05:51:39;99679.41;;;26.00;41.72
78625;BME280;67944;0.000;0.000;2023-07-24T05:54:04;99682.66;;;26.02;41.08
78625;BME280;67944;0.000;0.000;2023-07-24T05:56:30;99674.44;;;26.03;41.21
78625;BME280;67944;0.000;0.000;2023-07-24T05:58:55;99672.34;;;26.05;41.28
78625;BME280;67944;0.000;0.000;2023-07-24T06:01:20;99680.13;;;26.07;41.45
78625;BME280;67944;0.000;0.000;2023-07-24T06:03:46;99686.84;;;26.09;41.17
78625;BME280;67944;0.000;0.000;2023-07-24T06:06:11;99689.50;;;26.09;41.63
78625;BME280;67944;0.000;0.000;2023-07-24T06:08:37;99691.13;;;26.10;41.26
78625;BME280;67944;0.000;0.000;2023-07-24T06:11:02;99695.19;;;26.13;41.20
78625;BME280;67944;0.000;0.000;2023-07-24T06:13:28;99691.72;;;26.12;42.03
78625;BME280;67944;0.000;0.000;2023-07-24T06:15:53;99689.63;;;26.14;42.08
78625;BME280;67944;0.000;0.000;2023-07-24T06:18:18;99688.56;;;26.15;41.89
78625;BME280;67944;0.000;0.000;2023-07-24T06:20:44;99684.84;;;26.16;41.42
78625;BME280;67944;0.000;0.000;2023-07-24T06:23:09;99680.09;;;26.18;41.75
78625;BME280;67944;0.000;0.000;2023-07-24T06:25:35;99676.38;;;26.19;42.24
78625;BME280;67944;0.000;0.000;2023-07-24T06:28:00;99681.72;;;26.19;42.23
78625;BME280;67944;0.000;0.000;2023-07-24T06:30:26;99684.41;;;26.19;42.13
78625;BME280;67944;0.000;0.000;2023-07-24T06:32:51;99681.47;;;26.21;42.31
78625;BME280;67944;0.000;0.000;2023-07-24T06:35:17;99683.09;;;26.22;41.95
78625;BME280;67944;0.000;0.000;2023-07-24T06:37:42;99678.56;;;26.22;41.80
78625;BME280;67944;0.000;0.000;2023-07-24T06:40:08;99676.47;;;26.24;42.36
78625;BME280;67944;0.000;0.000;2023-07-24T06:42:34;99678.09;;;26.25;41.65
78625;BME280;67944;0.000;0.000;2023-07-24T06:44:59;99676.00;;;26.27;42.16
78625;BME280;67944;0.000;0.000;2023-07-24T06:47:26;99680.91;;;26.31;42.10
78625;BME280;67944;0.000;0.000;2023-07-24T06:49:51;99680.44;;;26.34;42.33
78625;BME280;67944;0.000;0.000;2023-07-24T06:52:16;99677.53;;;26.35;41.75
78625;BME280;67944;0.000;0.000;2023-07-24T06:54:42;99669.28;;;26.37;42.10
78625;BME280;67944;0.000;0.000;2023-07-24T06:57:07;99674.38;;;26.38;41.84
78625;BME280;67944;0.000;0.000;2023-07-24T06:59:33;99666.94;;;26.40;42.25
78625;BME280;67944;0.000;0.000;2023-07-24T07:01:58;99666.69;;;26.42;42.07
78625;BME280;67944;0.000;0.000;2023-07-24T07:04:24;99672.59;;;26.44;41.78
78625;BME280;67944;0.000;0.000;2023-07-24T07:06:49;99676.91;;;26.45;41.81
78625;BME280;67944;0.000;0.000;2023-07-24T07:09:15;99667.03;;;26.45;42.25
78625;BME280;67944;0.000;0.000;2023-07-24T07:11:40;99664.13;;;26.47;41.96
78625;BME280;67944;0.000;0.000;2023-07-24T07:14:05;99667.38;;;26.49;41.78
78625;BME280;67944;0.000;0.000;2023-07-24T07:16:34;99668.97;;;26.50;41.57
78625;BME280;67944;0.000;0.000;2023-07-24T07:18:59;99669.78;;;26.50;42.00
78625;BME280;67944;0.000;0.000;2023-07-24T07:21:25;99663.16;;;26.53;41.76
78625;BME280;67944;0.000;0.000;2023-07-24T07:23:50;99668.84;;;26.56;41.61
78625;BME280;67944;0.000;0.000;2023-07-24T07:26:16;99661.41;;;26.58;42.07
78625;BME280;67944;0.000;0.000;2023-07-24T07:28:41;99663.38;;;26.63;41.50
78625;BME280;67944;0.000;0.000;2023-07-24T07:31:06;99656.72;;;26.66;41.92
78625;BME280;67944;0.000;0.000;2023-07-24T07:33:32;99661.59;;;26.69;41.88
78625;BME280;67944;0.000;0.000;2023-07-24T07:35:57;99658.19;;;26.73;41.71
78625;BME280;67944;0.000;0.000;2023-07-24T07:38:23;99662.25;;;26.76;41.52
78625;BME280;67944;0.000;0.000;2023-07-24T07:40:49;99665.50;;;26.78;41.42
78625;BME280;67944;0.000;0.000;2023-07-24T07:43:14;99667.47;;;26.82;42.05
78625;BME280;67944;0.000;0.000;2023-07-24T07:45:40;99668.81;;;26.85;41.91
78625;BME280;67944;0.000;0.000;2023-07-24T07:48:05;99669.13;;;26.88;41.39
78625;BME280;67944;0.000;0.000;2023-07-24T07:50:31;99663.56;;;26.90;41.64
78625;BME280;67944;0.000;0.000;2023-07-24T07:52:57;99660.41;;;26.93;41.25
78625;BME280;67944;0.000;0.000;2023-07-24T07:55:22;99659.16;;;26.95;41.63
78625;BME280;67944;0.000;0.000;2023-07-24T07:57:48;99657.84;;;26.98;41.21
78625;BME280;67944;0.000;0.000;2023-07-24T08:00:13;99659.25;;;27.01;41.05
78625;BME280;67944;0.000;0.000;2023-07-24T08:02:39;99646.44;;;27.03;41.64
78625;BME280;67944;0.000;0.000;2023-07-24T08:05:09;99655.84;;;27.05;41.63
78625;BME280;67944;0.000;0.000;2023-07-24T08:07:35;99658.00;;;27.08;41.52
78625;BME280;67944;0.000;0.000;2023-07-24T08:10:02;99669.28;;;27.10;41.44
78625;BME280;67944;0.000;0.000;2023-07-24T08:12:28;99669.03;;;27.12;40.98
78625;BME280;67944;0.000;0.000;2023-07-24T08:14:54;99665.88;;;27.15;41.56
78625;BME280;67944;0.000;0.000;2023-07-24T08:17:19;99659.47;;;27.16;41.47
78625;BME280;67944;0.000;0.000;2023-07-24T08:19:45;99661.09;;;27.17;41.26
78625;BME280;67944;0.000;0.000;2023-07-24T08:22:10;99652.84;;;27.18;41.56
78625;BME280;67944;0.000;0.000;2023-07-24T08:24:36;99645.63;;;27.19;41.39
78625;BME280;67944;0.000;0.000;2023-07-24T08:27:02;99644.59;;;27.20;41.60
78625;BME280;67944;0.000;0.000;2023-07-24T08:29:28;99643.53;;;27.21;41.50
78625;BME280;67944;0.000;0.000;2023-07-24T08:31:53;99645.16;;;27.22;41.41
78625;BME280;67944;0.000;0.000;2023-07-24T08:34:19;99636.88;;;27.23;41.45
78625;BME280;67944;0.000;0.000;2023-07-24T08:36:44;99629.44;;;27.25;41.18
78625;BME280;67944;0.000;0.000;2023-07-24T08:39:10;99631.06;;;27.26;41.31
78625;BME280;67944;0.000;0.000;2023-07-24T08:41:36;99638.28;;;27.26;41.31
78625;BME280;67944;0.000;0.000;2023-07-24T08:44:04;99630.25;;;27.26;41.60
78625;BME280;67944;0.000;0.000;2023-07-24T08:46:31;99633.16;;;27.24;41.79
78625;BME280;67944;0.000;0.000;2023-07-24T08:49:01;99645.16;;;27.22;42.04
78625;BME280;67944;0.000;0.000;2023-07-24T08:51:27;99647.59;;;27.23;41.83
78625;BME280;67944;0.000;0.000;2023-07-24T08:53:54;99655.38;;;27.25;41.78
78625;BME280;67944;0.000;0.000;2023-07-24T08:56:19;99646.28;;;27.26;42.17
78625;BME280;67944;0.000;0.000;2023-07-24T08:58:45;99659.94;;;27.29;41.65
78625;BME280;67944;0.000;0.000;2023-07-24T09:01:10;99657.84;;;27.31;42.13
78625;BME280;67944;0.000;0.000;2023-07-24T09:03:36;99643.19;;;27.34;41.80
78625;BME280;67944;0.000;0.000;2023-07-24T09:06:01;99644.31;;;27.38;42.26
78625;BME280;67944;0.000;0.000;2023-07-24T09:08:32;99621.38;;;27.42;41.79
78625;BME280;67944;0.000;0.000;2023-07-24T09:10:59;99614.75;;;27.45;42.11
78625;BME280;67944;0.000;0.000;2023-07-24T09:13:25;99606.22;;;27.48;41.97
78625;BME280;67944;0.000;0.000;2023-07-24T09:15:51;99596.63;;;27.52;42.29
78625;BME280;67944;0.000;0.000;2023-07-24T09:18:16;99591.59;;;27.55;42.26
78625;BME280;67944;0.000;0.000;2023-07-24T09:20:44;99575.91;;;27.59;42.19
78625;BME280;67944;0.000;0.000;2023-07-24T09:23:11;99579.16;;;27.61;41.96
78625;BME280;67944;0.000;0.000;2023-07-24T09:25:39;99565.53;;;27.62;42.15
78625;BME280;67944;0.000;0.000;2023-07-24T09:28:13;99561.78;;;27.63;42.77
78625;BME280;67944;0.000;0.000;2023-07-24T09:30:40;99555.94;;;27.67;42.54
78625;BME280;67944;0.000;0.000;2023-07-24T09:33:06;99554.66;;;27.69;42.42
78625;BME280;67944;0.000;0.000;2023-07-24T09:35:32;99561.34;;;27.72;42.23
78625;BME280;67944;0.000;0.000;2023-07-24T09:38:11;99560.28;;;27.73;42.35
78625;BME280;67944;0.000;0.000;2023-07-24T09:40:42;99575.03;;;27.75;42.58
78625;BME280;67944;0.000;0.000;2023-07-24T09:43:28;99571.06;;;27.78;42.33
78625;BME280;67944;0.000;0.000;2023-07-24T09:45:54;99575.34;;;27.79;42.23
78625;BME280;67944;0.000;0.000;2023-07-24T09:48:23;99577.78;;;27.80;42.21
78625;BME280;67944;0.000;0.000;2023-07-24T09:50:55;99597.31;;;27.81;42.27
78625;BME280;67944;0.000;0.000;2023-07-24T09:56:05;99595.69;;;27.80;42.22
78625;BME280;67944;0.000;0.000;2023-07-24T09:58:36;99595.69;;;27.80;42.14
78625;BME280;67944;0.000;0.000;2023-07-24T10:01:04;99583.94;;;27.81;42.36
78625;BME280;67944;0.000;0.000;2023-07-24T10:03:46;99577.53;;;27.82;42.10
78625;BME280;67944;0.000;0.000;2023-07-24T10:06:13;99583.94;;;27.81;42.10
78625;BME280;67944;0.000;0.000;2023-07-24T10:08:41;99575.66;;;27.82;42.46
78625;BME280;67944;0.000;0.000;2023-07-24T10:11:14;99592.53;;;27.83;42.22
78625;BME280;67944;0.000;0.000;2023-07-24T10:13:41;99601.38;;;27.83;42.61
78625;BME280;67944;0.000;0.000;2023-07-24T10:16:07;99599.50;;;27.84;42.39
78625;BME280;67944;0.000;0.000;2023-07-24T10:18:35;99596.81;;;27.84;42.51
78625;BME280;67944;0.000;0.000;2023-07-24T10:21:09;99590.66;;;27.83;42.33
78625;BME280;67944;0.000;0.000;2023-07-24T10:23:35;99590.91;;;27.82;42.47
78625;BME280;67944;0.000;0.000;2023-07-24T10:26:06;99590.91;;;27.82;42.22
78625;BME280;67944;0.000;0.000;2023-07-24T10:28:34;99591.72;;;27.82;42.42
78625;BME280;67944;0.000;0.000;2023-07-24T10:31:05;99577.28;;;27.83;42.28
78625;BME280;67944;0.000;0.000;2023-07-24T10:33:35;99591.47;;;27.84;42.19
78625;BME280;67944;0.000;0.000;2023-07-24T10:36:07;99582.38;;;27.85;42.41
78625;BME280;67944;0.000;0.000;2023-07-24T10:38:38;99582.94;;;27.87;42.71
78625;BME280;67944;0.000;0.000;2023-07-24T10:41:06;99587.25;;;27.88;42.59
78625;BME280;67944;0.000;0.000;2023-07-24T10:43:46;99590.72;;;27.88;42.54
78625;BME280;67944;0.000;0.000;2023-07-24T10:46:13;99581.88;;;27.88;42.36
78625;BME280;67944;0.000;0.000;2023-07-24T10:48:46;99580.84;;;27.89;42.91
78625;BME280;67944;0.000;0.000;2023-07-24T10:51:12;99575.22;;;27.90;42.66
78625;BME280;67944;0.000;0.000;2023-07-24T10:53:43;99572.31;;;27.92;42.91
78625;BME280;67944;0.000;0.000;2023-07-24T10:56:09;99572.03;;;27.93;42.28
78625;BME280;67944;0.000;0.000;2023-07-24T10:58:35;99569.91;;;27.95;42.86
78625;BME280;67944;0.000;0.000;2023-07-24T11:01:04;99567.81;;;27.97;42.62
78625;BME280;67944;0.000;0.000;2023-07-24T11:03:30;99573.97;;;27.98;42.41
78625;BME280;67944;0.000;0.000;2023-07-24T11:05:58;99575.34;;;28.01;42.57
78625;BME280;67944;0.000;0.000;2023-07-24T11:08:24;99569.16;;;28.00;42.86
78625;BME280;67944;0.000;0.000;2023-07-24T11:10:52;99570.53;;;28.03;42.66
78625;BME280;67944;0.000;0.000;2023-07-24T11:13:21;99572.97;;;28.04;42.57
78625;BME280;67944;0.000;0.000;2023-07-24T11:15:48;99575.16;;;28.07;42.46
78625;BME280;67944;0.000;0.000;2023-07-24T11:18:15;99575.16;;;28.07;42.54
78625;BME280;67944;0.000;0.000;2023-07-24T11:20:47;99565.00;;;28.09;42.79
78625;BME280;67944;0.000;0.000;2023-07-24T11:23:13;99560.19;;;28.11;42.71
78625;BME280;67944;0.000;0.000;2023-07-24T11:25:40;99563.44;;;28.13;42.31
78625;BME280;67944;0.000;0.000;2023-07-24T11:28:07;99563.16;;;28.15;42.90
78625;BME280;67944;0.000;0.000;2023-07-24T11:30:33;99564.78;;;28.16;42.68
78625;BME280;67944;0.000;0.000;2023-07-24T11:33:02;99560.22;;;28.16;42.68
78625;BME280;67944;0.000;0.000;2023-07-24T11:35:28;99554.88;;;28.16;42.40
78625;BME280;67944;0.000;0.000;2023-07-24T11:37:54;99552.19;;;28.16;42.70
78625;BME280;67944;0.000;0.000;2023-07-24T11:40:19;99556.50;;;28.17;42.74
78625;BME280;67944;0.000;0.000;2023-07-24T11:42:48;99554.38;;;28.19;42.95
78625;BME280;67944;0.000;0.000;2023-07-24T11:45:14;99561.38;;;28.20;42.24
78625;BME280;67944;0.000;0.000;2023-07-24T11:47:44;99552.03;;;28.23;42.43
78625;BME280;67944;0.000;0.000;2023-07-24T11:50:10;99538.97;;;28.26;42.50
78625;BME280;67944;0.000;0.000;2023-07-24T11:52:39;99533.34;;;28.28;42.66
78625;BME280;67944;0.000;0.000;2023-07-24T11:55:06;99533.91;;;28.30;42.13
78625;BME280;67944;0.000;0.000;2023-07-24T11:57:32;99535.78;;;28.29;42.56
78625;BME280;67944;0.000;0.000;2023-07-24T11:59:57;99533.09;;;28.29;42.18
78625;BME280;67944;0.000;0.000;2023-07-24T12:02:27;99525.06;;;28.29;42.22
78625;BME280;67944;0.000;0.000;2023-07-24T12:04:57;99531.78;;;28.32;42.26
78625;BME280;67944;0.000;0.000;2023-07-24T12:07:43;99520.81;;;28.34;42.32
78625;BME280;67944;0.000;0.000;2023-07-24T12:10:12;99524.59;;;28.38;42.40
78625;BME280;67944;0.000;0.000;2023-07-24T12:12:46;99525.13;;;28.40;41.82
78625;BME280;67944;0.000;0.000;2023-07-24T12:15:12;99525.69;;;28.42;42.11
78625;BME280;67944;0.000;0.000;2023-07-24T12:17:38;99514.19;;;28.41;41.88
78625;BME280;67944;0.000;0.000;2023-07-24T12:20:04;99503.47;;;28.41;41.85
78625;BME280;67944;0.000;0.000;2023-07-24T12:22:34;99496.22;;;28.42;41.26
78625;BME280;67944;0.000;0.000;2023-07-24T12:25:01;99512.88;;;28.44;41.72
78625;BME280;67944;0.000;0.000;2023-07-24T12:27:26;99514.22;;;28.46;41.34
78625;BME280;67944;0.000;0.000;2023-07-24T12:29:52;99513.97;;;28.48;41.42
78625;BME280;67944;0.000;0.000;2023-07-24T12:32:17;99511.28;;;28.48;41.47
78625;BME280;67944;0.000;0.000;2023-07-24T12:34:46;99509.16;;;28.50;41.68
78625;BME280;67944;0.000;0.000;2023-07-24T12:37:11;99508.41;;;28.54;41.19
78625;BME280;67944;0.000;0.000;2023-07-24T12:39:37;99499.88;;;28.57;41.35
78625;BME280;67944;0.000;0.000;2023-07-24T12:42:02;99496.66;;;28.60;41.50
78625;BME280;67944;0.000;0.000;2023-07-24T12:44:28;99492.41;;;28.64;41.42
78625;BME280;67944;0.000;0.000;2023-07-24T12:46:53;99482.78;;;28.69;41.39
78625;BME280;67944;0.000;0.000;2023-07-24T12:49:19;99469.94;;;28.71;41.34
78625;BME280;67944;0.000;0.000;2023-07-24T12:51:44;99475.59;;;28.74;41.47
78625;BME280;67944;0.000;0.000;2023-07-24T12:54:09;99480.69;;;28.76;41.44
78625;BME280;67944;0.000;0.000;2023-07-24T12:56:35;99485.28;;;28.80;41.14
78625;BME280;67944;0.000;0.000;2023-07-24T12:59:01;99487.47;;;28.83;41.32
78625;BME280;67944;0.000;0.000;2023-07-24T13:01:27;99493.94;;;28.87;41.51
78625;BME280;67944;0.000;0.000;2023-07-24T13:03:54;99483.75;;;28.89;41.68
78625;BME280;67944;0.000;0.000;2023-07-24T13:06:19;99481.63;;;28.91;41.33
78625;BME280;67944;0.000;0.000;2023-07-24T13:08:45;99472.78;;;28.91;41.03